首页
METAR-TAF:

METAR-TAF

机场 :

伦敦绍森德机场

伦敦Southend, 英格兰

纬度: 51-34N, 经度: 000-42E, 海拔: 15米

当前天气观测

该预报发布于42分钟前的16:50 UTC
风速17节,风向西南
温度 9°C
湿度 76%
气压 1020 hPa
能见度10公里或以上
少量云层高于2000英尺

METAR: EGMC 211650Z 23017KT 9999 FEW020 09/05 Q1020

时间: 17:32 (17:32 UTC)

预报

该预报发布于3小时和25分钟前的14:07 UTC
预报有效从21日的 15点(UTC)到 21日的 24点(UTC)
风速20节,风向西南,有时为30节阵风
能见度10公里或以上
多云层高于2500英尺
几率 30% :
短暂存在
从 21日的 20点(UTC)到 21日的 24点(UTC)
能見度: 8000
多云层高于1200英尺
小雨

TAF: EGMC 211407Z 2115/2124 23020G30KT 9999 BKN025 PROB30 TEMPO 2120/2124 8000 -RA BKN012

超过4000个机场的气象观测和天气预报(METAR&TAF报告)。

可查询的气象台以黄色和红色小点在地图上表示。

将鼠标移到小点上方,可查看气象台名称。

然后点击查看天气观测和预报。

如需切换地图:点击带黑十字的绿色按钮放大地图;点击带横线的绿色按钮缩小地图;或者点击绿色箭头查看邻近地区的地图。


METAR-TAF: